createdAt,value
2023-03-08T00:00:12.617Z,-1.60
2023-03-08T00:02:39.293Z,-1.93
2023-03-08T00:05:07.084Z,-1.59
2023-03-08T00:07:33.953Z,-1.86
2023-03-08T00:10:00.809Z,-2.07
2023-03-08T00:12:28.623Z,-1.94
2023-03-08T00:14:55.330Z,-2.15
2023-03-08T00:17:22.276Z,-2.03
2023-03-08T00:19:51.980Z,-1.69
2023-03-08T00:22:18.671Z,-1.99
2023-03-08T00:24:45.391Z,-2.23
2023-03-08T00:27:12.098Z,-2.12
2023-03-08T00:29:38.886Z,-2.03
2023-03-08T00:32:05.836Z,-1.93
2023-03-08T00:34:32.559Z,-1.88
2023-03-08T00:36:59.299Z,-1.77
2023-03-08T00:39:25.974Z,-1.98
2023-03-08T00:41:52.758Z,-1.85
2023-03-08T00:44:19.430Z,-2.03
2023-03-08T00:46:46.229Z,-2.29
2023-03-08T00:49:13.540Z,-1.93
2023-03-08T00:51:40.327Z,-2.02
2023-03-08T00:54:07.083Z,-2.12
2023-03-08T00:56:33.835Z,-2.19
2023-03-08T00:59:00.620Z,-1.95
2023-03-08T01:01:27.382Z,-1.85
2023-03-08T01:03:54.185Z,-2.32
2023-03-08T01:06:20.971Z,-2.18
2023-03-08T01:08:47.864Z,-1.99
2023-03-08T01:11:26.200Z,-2.12
2023-03-08T01:13:54.049Z,-1.96
2023-03-08T01:16:24.564Z,-1.93
2023-03-08T01:18:51.913Z,-2.10
2023-03-08T01:21:18.860Z,-1.99
2023-03-08T01:23:45.682Z,-2.03
2023-03-08T01:26:15.126Z,-1.91
2023-03-08T01:28:42.714Z,-1.81
2023-03-08T01:31:15.380Z,-1.85
2023-03-08T01:33:43.400Z,-2.29
2023-03-08T01:36:13.412Z,-1.92
2023-03-08T01:38:40.199Z,-2.05
2023-03-08T01:41:09.388Z,-1.95
2023-03-08T01:43:39.061Z,-2.48
2023-03-08T01:46:20.662Z,-2.32
2023-03-08T01:49:07.600Z,-2.75
2023-03-08T01:51:39.164Z,-2.34
2023-03-08T01:54:13.121Z,-2.46
2023-03-08T01:56:42.905Z,-2.75
2023-03-08T01:59:10.514Z,-2.90
2023-03-08T02:01:37.522Z,-2.58
2023-03-08T02:04:04.369Z,-2.51
2023-03-08T02:06:31.082Z,-2.70
2023-03-08T02:08:58.500Z,-2.74
2023-03-08T02:11:25.905Z,-2.79
2023-03-08T02:13:54.627Z,-2.53
2023-03-08T02:16:22.739Z,-3.00
2023-03-08T02:19:01.677Z,-2.57
2023-03-08T02:21:30.308Z,-2.65
2023-03-08T02:24:07.215Z,-2.51
2023-03-08T02:26:37.173Z,-2.65
2023-03-08T02:29:03.953Z,-2.63
2023-03-08T02:31:30.685Z,-2.84
2023-03-08T02:33:57.376Z,-2.94
2023-03-08T02:36:24.084Z,-2.76
2023-03-08T02:38:50.795Z,-2.98
2023-03-08T02:41:17.582Z,-2.72
2023-03-08T02:43:44.334Z,-2.87
2023-03-08T02:46:12.571Z,-2.52
2023-03-08T02:48:39.315Z,-2.80
2023-03-08T02:51:06.304Z,-2.89
2023-03-08T02:53:33.003Z,-3.05
2023-03-08T02:55:59.703Z,-2.94
2023-03-08T02:58:26.423Z,-2.84
2023-03-08T03:00:53.139Z,-2.89
2023-03-08T03:03:19.843Z,-2.84
2023-03-08T03:05:46.531Z,-2.72
2023-03-08T03:08:13.290Z,-3.07
2023-03-08T03:13:06.640Z,-2.77
2023-03-08T03:15:34.413Z,-2.70
2023-03-08T03:18:01.227Z,-2.99
2023-03-08T03:20:27.943Z,-2.91
2023-03-08T03:22:54.646Z,-3.20
2023-03-08T03:25:21.428Z,-2.72
2023-03-08T03:27:48.102Z,-3.07
2023-03-08T03:30:14.996Z,-2.96
2023-03-08T03:32:41.762Z,-3.00
2023-03-08T03:35:08.916Z,-3.03
2023-03-08T03:37:36.715Z,-3.32
2023-03-08T03:40:05.165Z,-3.29
2023-03-08T03:42:31.953Z,-2.94
2023-03-08T03:44:58.674Z,-2.80
2023-03-08T03:47:25.437Z,-2.98
2023-03-08T03:49:52.125Z,-3.04
2023-03-08T03:52:18.829Z,-3.31
2023-03-08T03:54:45.564Z,-3.13
2023-03-08T03:57:12.300Z,-3.30
2023-03-08T03:59:39.022Z,-3.29
2023-03-08T04:02:05.782Z,-3.32
2023-03-08T04:04:32.600Z,-3.39
2023-03-08T04:06:59.297Z,-3.59
2023-03-08T04:09:25.987Z,-3.45
2023-03-08T04:11:52.830Z,-3.36
2023-03-08T04:14:19.569Z,-3.36
2023-03-08T04:16:46.291Z,-3.58
2023-03-08T04:19:13.818Z,-3.65
2023-03-08T04:21:40.550Z,-3.19
2023-03-08T04:24:07.812Z,-3.85
2023-03-08T04:26:34.732Z,-3.67
2023-03-08T04:29:05.767Z,-3.71
2023-03-08T04:31:35.157Z,-3.21
2023-03-08T04:34:03.030Z,-3.45
2023-03-08T04:36:29.842Z,-3.59
2023-03-08T04:38:56.742Z,-3.34
2023-03-08T04:41:24.038Z,-3.40
2023-03-08T04:43:52.944Z,-3.62
2023-03-08T04:46:22.894Z,-3.39
2023-03-08T04:48:52.880Z,-3.44
2023-03-08T04:51:20.476Z,-3.29
2023-03-08T04:53:47.348Z,-3.21
2023-03-08T04:56:15.725Z,-3.04
2023-03-08T04:58:42.932Z,-3.04
2023-03-08T05:01:15.693Z,-3.25
2023-03-08T05:03:43.577Z,-3.24
2023-03-08T05:06:12.013Z,-2.85
2023-03-08T05:08:38.768Z,-3.26
2023-03-08T05:11:06.281Z,-3.21
2023-03-08T05:13:36.245Z,-3.66
2023-03-08T05:16:07.038Z,-3.24
2023-03-08T05:18:33.940Z,-3.44
2023-03-08T05:21:07.045Z,-3.86
2023-03-08T05:23:34.691Z,-3.60
2023-03-08T05:26:03.321Z,-4.36
2023-03-08T05:28:32.338Z,-4.17
2023-03-08T05:31:12.582Z,-4.11
2023-03-08T05:33:40.374Z,-3.87
2023-03-08T05:36:08.139Z,-4.43
2023-03-08T05:38:35.273Z,-3.71
2023-03-08T05:41:03.744Z,-3.59
2023-03-08T05:43:30.896Z,-3.91
2023-03-08T05:46:03.809Z,-3.57
2023-03-08T05:48:31.195Z,-3.43
2023-03-08T05:50:58.226Z,-3.63
2023-03-08T05:53:25.322Z,-3.74
2023-03-08T05:55:52.705Z,-3.73
2023-03-08T05:58:19.420Z,-3.62
2023-03-08T06:00:46.095Z,-4.12
2023-03-08T06:03:13.040Z,-3.68
2023-03-08T06:05:39.866Z,-4.10
2023-03-08T06:08:06.651Z,-3.99
2023-03-08T06:10:33.564Z,-3.77
2023-03-08T06:13:00.289Z,-4.13
2023-03-08T06:15:27.078Z,-3.96
2023-03-08T06:17:54.287Z,-3.89
2023-03-08T06:20:21.009Z,-3.90
2023-03-08T06:22:47.893Z,-3.93
2023-03-08T06:25:14.768Z,-4.17
2023-03-08T06:27:41.554Z,-4.46
2023-03-08T06:30:08.870Z,-4.49
2023-03-08T06:32:37.696Z,-4.55
2023-03-08T06:35:04.928Z,-4.36
2023-03-08T06:37:35.849Z,-4.46
2023-03-08T06:40:03.865Z,-4.06
2023-03-08T06:42:40.781Z,-4.44
2023-03-08T06:45:09.213Z,-4.69
2023-03-08T06:47:35.918Z,-4.56
2023-03-08T06:50:03.143Z,-4.64
2023-03-08T06:52:35.072Z,-4.36
2023-03-08T06:55:01.818Z,-4.23
2023-03-08T06:57:28.588Z,-4.58
2023-03-08T06:59:55.330Z,-5.16
2023-03-08T07:02:22.060Z,-5.01
2023-03-08T07:04:49.759Z,-4.88
2023-03-08T07:07:16.727Z,-4.90
2023-03-08T07:09:43.537Z,-4.60
2023-03-08T07:12:10.331Z,-4.92
2023-03-08T07:14:37.157Z,-4.66
2023-03-08T07:17:03.891Z,-4.43
2023-03-08T07:19:31.636Z,-4.53
2023-03-08T07:21:58.349Z,-3.99
2023-03-08T07:24:25.117Z,-4.17
2023-03-08T07:26:51.894Z,-3.84
2023-03-08T07:29:18.651Z,-3.80
2023-03-08T07:31:45.435Z,-3.63
2023-03-08T07:34:12.414Z,-3.80
2023-03-08T07:36:40.304Z,-3.47
2023-03-08T07:39:07.167Z,-3.54
2023-03-08T07:41:34.881Z,-3.09
2023-03-08T07:44:02.630Z,-1.63
2023-03-08T07:46:30.113Z,-0.87
2023-03-08T07:48:57.057Z,-0.13
2023-03-08T07:51:23.968Z,0.12
2023-03-08T07:53:52.489Z,0.53
2023-03-08T07:56:19.327Z,0.65
2023-03-08T07:58:46.295Z,0.70
2023-03-08T08:01:14.253Z,0.80
2023-03-08T08:03:41.386Z,1.41
2023-03-08T08:06:08.670Z,1.09
2023-03-08T08:08:35.539Z,1.03
2023-03-08T08:11:09.636Z,1.15
2023-03-08T08:13:36.354Z,1.51
2023-03-08T08:16:03.760Z,2.07
2023-03-08T08:18:30.429Z,2.17
2023-03-08T08:21:05.252Z,2.24
2023-03-08T08:23:33.032Z,2.07
2023-03-08T08:25:59.794Z,2.19
2023-03-08T08:28:27.410Z,2.34
2023-03-08T08:31:04.176Z,2.46
2023-03-08T08:33:31.894Z,2.50
2023-03-08T08:35:59.684Z,2.43
2023-03-08T08:38:26.946Z,2.02
2023-03-08T08:40:53.830Z,2.47
2023-03-08T08:43:20.612Z,2.60
2023-03-08T08:45:49.892Z,2.75
2023-03-08T08:48:16.653Z,2.71
2023-03-08T08:50:43.352Z,3.00
2023-03-08T08:53:10.627Z,3.36
2023-03-08T08:55:38.939Z,3.01
2023-03-08T08:58:07.410Z,3.56
2023-03-08T09:00:35.485Z,3.83
2023-03-08T09:03:03.846Z,3.61
2023-03-08T09:05:32.074Z,3.50
2023-03-08T09:08:00.696Z,3.54
2023-03-08T09:10:29.163Z,3.18
2023-03-08T09:12:57.855Z,3.03
2023-03-08T09:15:25.905Z,2.80
2023-03-08T09:17:52.805Z,2.37
2023-03-08T09:20:22.163Z,2.54
2023-03-08T09:22:50.459Z,2.33
2023-03-08T09:25:19.675Z,2.41
2023-03-08T09:27:46.539Z,2.76
2023-03-08T09:30:14.983Z,2.40
2023-03-08T09:32:42.055Z,1.90
2023-03-08T09:35:10.176Z,1.63
2023-03-08T09:37:38.265Z,1.68
2023-03-08T09:40:09.795Z,1.62
2023-03-08T09:42:38.436Z,2.30
2023-03-08T09:45:23.566Z,2.80
2023-03-08T09:47:57.658Z,2.99
2023-03-08T09:50:37.821Z,3.26
2023-03-08T09:53:07.599Z,3.21
2023-03-08T09:55:36.384Z,3.26
2023-03-08T09:58:15.328Z,3.32
2023-03-08T10:00:42.211Z,3.22
2023-03-08T10:03:27.131Z,3.19
2023-03-08T10:06:18.102Z,3.67
2023-03-08T10:09:02.435Z,3.70
2023-03-08T10:11:48.242Z,3.61
2023-03-08T10:14:24.400Z,3.35
2023-03-08T10:16:57.353Z,3.48
2023-03-08T10:19:36.342Z,3.18
2023-03-08T10:22:18.617Z,3.11
2023-03-08T10:25:12.581Z,3.50
2023-03-08T10:27:39.363Z,3.32
2023-03-08T10:30:19.775Z,3.31
2023-03-08T10:32:50.045Z,3.65
2023-03-08T10:35:18.319Z,2.93
2023-03-08T10:37:51.718Z,3.17
2023-03-08T10:40:22.046Z,2.95
2023-03-08T10:43:00.021Z,2.75
2023-03-08T10:45:29.286Z,3.23
2023-03-08T10:48:06.583Z,3.40
2023-03-08T10:50:36.541Z,3.41
2023-03-08T10:53:20.025Z,3.34
2023-03-08T10:55:47.815Z,3.53
2023-03-08T10:58:41.035Z,2.94
2023-03-08T11:01:26.807Z,3.23
2023-03-08T11:04:02.780Z,3.44
2023-03-08T11:06:29.902Z,3.12
2023-03-08T11:09:00.275Z,3.36
2023-03-08T11:11:28.091Z,3.43
2023-03-08T11:13:55.920Z,3.65
2023-03-08T11:16:36.268Z,3.58
2023-03-08T11:19:26.413Z,3.79
2023-03-08T11:22:04.046Z,3.90
2023-03-08T11:24:56.624Z,3.16
2023-03-08T11:27:26.223Z,3.50
2023-03-08T11:29:59.090Z,3.76
2023-03-08T11:32:34.129Z,3.47
2023-03-08T11:35:22.385Z,3.79
2023-03-08T11:37:56.970Z,3.37
2023-03-08T11:40:56.048Z,3.65
2023-03-08T11:43:41.503Z,3.67
2023-03-08T11:46:14.318Z,3.50
2023-03-08T11:48:41.033Z,3.19
2023-03-08T11:51:15.395Z,3.37
2023-03-08T11:54:11.285Z,3.40
2023-03-08T11:56:44.792Z,3.19
2023-03-08T11:59:21.766Z,3.18
2023-03-08T12:02:06.730Z,3.61
2023-03-08T12:04:57.644Z,3.48
2023-03-08T12:07:36.637Z,3.88
2023-03-08T12:10:26.003Z,3.55
2023-03-08T12:12:59.317Z,3.91
2023-03-08T12:15:35.009Z,3.87
2023-03-08T12:18:37.829Z,3.91
2023-03-08T12:21:30.402Z,3.95
2023-03-08T12:24:07.578Z,3.41
2023-03-08T12:27:12.299Z,3.55
2023-03-08T12:29:57.211Z,3.78
2023-03-08T12:32:25.989Z,3.77
2023-03-08T12:35:07.267Z,3.48
2023-03-08T12:37:34.034Z,3.66
2023-03-08T12:40:08.474Z,3.76
2023-03-08T12:42:38.796Z,4.00
2023-03-08T12:45:28.626Z,3.82
2023-03-08T12:48:15.686Z,3.41
2023-03-08T12:50:54.521Z,3.35
2023-03-08T12:53:34.248Z,3.42
2023-03-08T12:56:31.454Z,3.66
2023-03-08T12:59:02.663Z,3.64
2023-03-08T13:01:35.336Z,3.84
2023-03-08T13:04:05.273Z,3.84
2023-03-08T13:06:52.307Z,3.39
2023-03-08T13:09:28.955Z,3.61
2023-03-08T13:12:20.516Z,3.70
2023-03-08T13:15:25.604Z,3.91
2023-03-08T13:18:05.956Z,3.57
2023-03-08T13:20:53.953Z,3.61
2023-03-08T13:24:13.359Z,3.66
2023-03-08T13:27:13.715Z,3.60
2023-03-08T13:29:43.849Z,3.44
2023-03-08T13:32:16.764Z,3.50
2023-03-08T13:34:46.513Z,3.52
2023-03-08T13:37:24.299Z,3.69
2023-03-08T13:39:56.097Z,3.20
2023-03-08T13:42:25.279Z,3.95
2023-03-08T13:44:53.569Z,3.77
2023-03-08T13:47:26.398Z,3.77
2023-03-08T13:49:55.838Z,3.87
2023-03-08T13:52:27.131Z,3.74
2023-03-08T13:55:00.200Z,3.61
2023-03-08T13:57:28.019Z,4.02
2023-03-08T13:59:57.988Z,3.98
2023-03-08T14:02:27.735Z,4.03
2023-03-08T14:04:54.755Z,3.96
2023-03-08T14:07:28.892Z,4.12
2023-03-08T14:09:56.862Z,4.24
2023-03-08T14:12:30.072Z,4.32
2023-03-08T14:15:04.588Z,4.18
2023-03-08T14:17:34.264Z,3.72
2023-03-08T14:20:05.492Z,3.77
2023-03-08T14:22:39.542Z,4.16
2023-03-08T14:25:20.404Z,4.65
2023-03-08T14:27:47.215Z,4.14
2023-03-08T14:30:25.347Z,4.30
2023-03-08T14:33:22.026Z,3.83
2023-03-08T14:35:58.772Z,3.83
2023-03-08T14:38:28.725Z,3.86
2023-03-08T14:40:56.734Z,4.02
2023-03-08T14:43:26.014Z,3.71
2023-03-08T14:45:55.579Z,4.16
2023-03-08T14:48:44.724Z,3.96
2023-03-08T14:51:17.563Z,4.03
2023-03-08T14:53:44.585Z,3.98
2023-03-08T14:56:16.782Z,4.12
2023-03-08T14:58:53.923Z,3.71
2023-03-08T15:01:29.842Z,3.86
2023-03-08T15:03:57.565Z,3.70
2023-03-08T15:06:28.410Z,4.07
2023-03-08T15:08:55.706Z,3.83
2023-03-08T15:11:23.569Z,3.61
2023-03-08T15:13:50.951Z,4.05
2023-03-08T15:16:18.054Z,3.58
2023-03-08T15:18:44.833Z,3.71
2023-03-08T15:21:20.985Z,3.60
2023-03-08T15:23:49.270Z,3.60
2023-03-08T15:26:22.659Z,4.03
2023-03-08T15:28:49.488Z,3.69
2023-03-08T15:31:16.206Z,3.55
2023-03-08T15:33:42.967Z,3.37
2023-03-08T15:36:19.321Z,3.48
2023-03-08T15:38:46.525Z,3.70
2023-03-08T15:41:14.499Z,3.68
2023-03-08T15:43:41.619Z,3.62
2023-03-08T15:46:13.614Z,3.85
2023-03-08T15:48:40.389Z,3.43
2023-03-08T15:51:21.654Z,3.48
2023-03-08T15:53:49.466Z,3.91
2023-03-08T15:56:16.876Z,3.66
2023-03-08T15:58:43.779Z,3.31
2023-03-08T16:01:12.088Z,3.46
2023-03-08T16:03:39.173Z,3.47
2023-03-08T16:06:11.113Z,3.82
2023-03-08T16:08:38.525Z,3.52
2023-03-08T16:11:09.738Z,3.77
2023-03-08T16:13:36.547Z,3.30
2023-03-08T16:16:04.900Z,3.28
2023-03-08T16:18:32.529Z,3.33
2023-03-08T16:20:59.290Z,3.27
2023-03-08T16:23:26.781Z,3.25
2023-03-08T16:26:15.382Z,3.06
2023-03-08T16:28:45.113Z,3.11
2023-03-08T16:31:12.351Z,3.01
2023-03-08T16:33:39.821Z,2.64
2023-03-08T16:36:07.294Z,2.92
2023-03-08T16:38:34.062Z,2.79
2023-03-08T16:41:12.238Z,2.98
2023-03-08T16:43:46.925Z,2.80
2023-03-08T16:46:16.664Z,2.96
2023-03-08T16:48:43.541Z,2.84
2023-03-08T16:51:14.767Z,3.11
2023-03-08T16:53:41.554Z,2.75
2023-03-08T16:56:08.262Z,2.51
2023-03-08T16:58:34.966Z,2.63
2023-03-08T17:01:01.838Z,2.84
2023-03-08T17:03:28.583Z,2.35
2023-03-08T17:05:55.406Z,2.46
2023-03-08T17:08:22.129Z,2.05
2023-03-08T17:10:48.799Z,2.37
2023-03-08T17:13:15.512Z,2.41
2023-03-08T17:15:44.288Z,2.73
2023-03-08T17:18:11.495Z,2.71
2023-03-08T17:20:42.104Z,2.49
2023-03-08T17:23:10.930Z,2.19
2023-03-08T17:25:41.087Z,2.18
2023-03-08T17:28:10.150Z,2.31
2023-03-08T17:30:39.478Z,1.88
2023-03-08T17:33:06.235Z,2.13
2023-03-08T17:35:33.216Z,1.80
2023-03-08T17:38:00.073Z,1.51
2023-03-08T17:40:26.873Z,1.84
2023-03-08T17:42:53.566Z,1.65
2023-03-08T17:45:20.272Z,1.71
2023-03-08T17:47:47.007Z,1.65
2023-03-08T17:50:13.810Z,1.56
2023-03-08T17:52:41.590Z,1.81
2023-03-08T17:55:08.976Z,1.72
2023-03-08T17:57:36.890Z,1.81
2023-03-08T18:00:05.736Z,1.69
2023-03-08T18:02:33.153Z,1.62
2023-03-08T18:05:00.014Z,1.32
2023-03-08T18:07:28.296Z,1.52
2023-03-08T18:09:55.060Z,1.09
2023-03-08T18:12:21.876Z,1.19
2023-03-08T18:14:52.518Z,1.10
2023-03-08T18:17:20.575Z,0.86
2023-03-08T18:19:48.310Z,1.13
2023-03-08T18:22:15.555Z,1.07
2023-03-08T18:24:42.574Z,0.99
2023-03-08T18:27:09.341Z,0.80
2023-03-08T18:29:36.771Z,0.82
2023-03-08T18:32:04.565Z,0.85
2023-03-08T18:34:31.233Z,0.74
2023-03-08T18:37:01.059Z,0.92
2023-03-08T18:39:27.763Z,0.92
2023-03-08T18:41:56.932Z,0.69
2023-03-08T18:44:26.458Z,0.50
2023-03-08T18:46:53.218Z,0.70
2023-03-08T18:49:20.106Z,0.53
2023-03-08T18:51:47.022Z,0.90
2023-03-08T18:54:17.532Z,0.94
2023-03-08T18:56:44.705Z,0.83
2023-03-08T18:59:14.004Z,0.90
2023-03-08T19:01:40.990Z,0.55
2023-03-08T19:04:08.204Z,0.68
2023-03-08T19:06:36.633Z,0.75
2023-03-08T19:09:17.191Z,0.82
2023-03-08T19:11:45.024Z,0.71
2023-03-08T19:14:13.033Z,0.35
2023-03-08T19:16:40.045Z,0.50
2023-03-08T19:19:10.216Z,0.82
2023-03-08T19:21:48.768Z,0.56
2023-03-08T19:24:17.526Z,0.50
2023-03-08T19:26:47.559Z,0.22
2023-03-08T19:29:21.686Z,0.58
2023-03-08T19:31:56.544Z,0.58
2023-03-08T19:34:26.946Z,-0.06
2023-03-08T19:36:54.657Z,0.50
2023-03-08T19:39:33.548Z,0.02
2023-03-08T19:42:02.958Z,0.53
2023-03-08T19:44:30.566Z,0.57
2023-03-08T19:46:57.836Z,0.53
2023-03-08T19:49:29.601Z,0.29
2023-03-08T19:51:57.919Z,0.48
2023-03-08T19:54:26.490Z,0.04
2023-03-08T19:56:53.824Z,0.08
2023-03-08T19:59:20.883Z,-0.13
2023-03-08T20:01:50.076Z,0.13
2023-03-08T20:04:17.422Z,-0.11
2023-03-08T20:06:46.936Z,0.43
2023-03-08T20:09:21.803Z,0.33
2023-03-08T20:11:53.261Z,0.30
2023-03-08T20:14:21.147Z,-0.28
2023-03-08T20:16:48.088Z,-0.26
2023-03-08T20:19:15.028Z,-0.16
2023-03-08T20:21:42.065Z,-0.10
2023-03-08T20:24:09.297Z,-0.14
2023-03-08T20:26:37.899Z,0.23
2023-03-08T20:29:05.564Z,0.16
2023-03-08T20:31:33.168Z,-0.23
2023-03-08T20:34:00.837Z,0.18
2023-03-08T20:36:28.711Z,-0.29
2023-03-08T20:38:57.326Z,-0.14
2023-03-08T20:41:24.405Z,0.08
2023-03-08T20:43:55.661Z,0.09
2023-03-08T20:46:26.317Z,0.06
2023-03-08T20:48:54.130Z,-0.23
2023-03-08T20:51:22.713Z,-0.16
2023-03-08T20:53:51.893Z,-0.31
2023-03-08T20:56:21.364Z,0.14
2023-03-08T20:58:48.717Z,0.06
2023-03-08T21:01:19.692Z,-0.45
2023-03-08T21:03:47.494Z,0.13
2023-03-08T21:06:21.838Z,0.06
2023-03-08T21:08:50.206Z,-0.42
2023-03-08T21:11:17.818Z,-0.43
2023-03-08T21:13:46.229Z,-0.49
2023-03-08T21:16:15.915Z,-0.37
2023-03-08T21:18:46.045Z,-0.24
2023-03-08T21:21:22.060Z,0.02
2023-03-08T21:23:50.460Z,-0.03
2023-03-08T21:26:17.369Z,-0.55
2023-03-08T21:28:46.729Z,-0.40
2023-03-08T21:31:14.220Z,-0.45
2023-03-08T21:33:41.357Z,-0.40
2023-03-08T21:36:08.436Z,-0.02
2023-03-08T21:38:35.372Z,-0.30
2023-03-08T21:41:02.578Z,-0.34
2023-03-08T21:43:29.582Z,-0.49
2023-03-08T21:45:56.774Z,-0.36
2023-03-08T21:48:23.787Z,-0.35
2023-03-08T21:50:50.686Z,-0.13
2023-03-08T21:53:17.630Z,-0.32
2023-03-08T21:55:44.590Z,-0.40
2023-03-08T21:58:11.437Z,-0.81
2023-03-08T22:00:38.298Z,-0.80
2023-03-08T22:03:06.572Z,-0.82
2023-03-08T22:05:33.506Z,-0.83
2023-03-08T22:08:00.390Z,-0.90
2023-03-08T22:10:27.240Z,-0.72
2023-03-08T22:12:54.040Z,-1.00
2023-03-08T22:15:20.763Z,-0.82
2023-03-08T22:17:47.511Z,-0.99
2023-03-08T22:20:14.281Z,-0.55
2023-03-08T22:22:41.191Z,-0.61
2023-03-08T22:25:08.604Z,-0.83
2023-03-08T22:27:35.450Z,-0.72
2023-03-08T22:30:03.396Z,-1.08
2023-03-08T22:32:30.097Z,-0.84
2023-03-08T22:34:57.335Z,-0.73
2023-03-08T22:37:24.045Z,-0.65
2023-03-08T22:39:50.890Z,-0.87
2023-03-08T22:42:17.615Z,-0.97
2023-03-08T22:44:44.477Z,-0.98
2023-03-08T22:47:11.265Z,-1.25
2023-03-08T22:49:38.123Z,-1.04
2023-03-08T22:52:05.575Z,-1.03
2023-03-08T22:54:32.258Z,-1.12
2023-03-08T22:56:59.024Z,-1.22
2023-03-08T22:59:25.906Z,-1.06
2023-03-08T23:01:53.997Z,-0.77
2023-03-08T23:04:21.278Z,-1.04
2023-03-08T23:06:48.370Z,-1.15
2023-03-08T23:09:17.124Z,-1.30
2023-03-08T23:11:44.758Z,-0.86
2023-03-08T23:14:12.243Z,-1.05
2023-03-08T23:16:44.935Z,-1.23
2023-03-08T23:19:18.542Z,-1.22
2023-03-08T23:21:45.504Z,-1.06
2023-03-08T23:24:12.722Z,-0.89
2023-03-08T23:26:40.055Z,-1.41
2023-03-08T23:29:07.229Z,-1.24
2023-03-08T23:31:36.367Z,-1.10
2023-03-08T23:34:05.496Z,-1.11
2023-03-08T23:36:33.393Z,-1.20
2023-03-08T23:39:04.221Z,-1.71
2023-03-08T23:41:32.566Z,-1.37
2023-03-08T23:44:01.951Z,-1.74
2023-03-08T23:46:28.830Z,-1.99
2023-03-08T23:48:57.119Z,-1.61
2023-03-08T23:51:26.006Z,-1.93
2023-03-08T23:53:54.819Z,-2.20
2023-03-08T23:56:27.295Z,-2.16
2023-03-08T23:58:55.846Z,-1.87
